Kanazawa, Japan
Current Conditions -  °F | °C
As of 1:00 AM on Thursday 27 Nov 2014 (Local Time) from RJNK Reporting Station
Broken Clouds Broken Clouds  
Wind Chill: 57°   Ceiling: 4000
Heat Index: 57°   Visibility: 6mi
Dew Point: 41°   Wind: 9mph
Humidity: 55%   Direction: 310°NW
Pressure: 30.06"   Gusts: NA
Location:  36.56°N, 136.64°E
Report Text: RJNK 261600Z 31008KT 280V340 9999 FEW020 BKN040 14/05 Q1018
Loading
Personal Weather Stations






























Interactive Weather Map New forecast layout! Learn more

10-Day Weather Forecast

Advertisements
Track Severe Weather on mobile